Ben Bolt, Texas
Current Conditions -  °F | °C
As of 6:53 PM on Sunday 23 Nov 2014 (Local Time) from KALI Reporting Station
Clear Clear  
Wind Chill: 66°   Ceiling: Unl
Heat Index: 66°   Visibility: 10mi
Dew Point: 53°   Wind: 0mph
Humidity: 63%   Direction: NA
Pressure: 29.64"   Gusts: NA
Location:  27.65°N, 98.08°W
Report Text: KALI 240053Z AUTO 00000KT 10SM CLR 19/12 A2964 RMK AO2 SLP035 T01890117
Loading
Personal Weather Stations






























Interactive Weather Map New forecast layout! Learn more

10-Day Weather Forecast

Advertisements
Track Severe Weather on mobile